createdAt,value
2022-08-17T00:01:51.458Z,17.23
2022-08-17T00:04:20.739Z,17.40
2022-08-17T00:06:49.606Z,15.77
2022-08-17T00:09:18.648Z,17.23
2022-08-17T00:12:41.040Z,16.75
2022-08-17T00:14:36.724Z,17.13
2022-08-17T00:17:06.447Z,17.10
2022-08-17T00:19:34.103Z,18.13
2022-08-17T00:22:35.265Z,17.40
2022-08-17T00:24:50.549Z,17.55
2022-08-17T00:27:19.056Z,17.27
2022-08-17T00:29:46.246Z,18.20
2022-08-17T00:33:23.146Z,17.73
2022-08-17T00:35:06.810Z,18.17
2022-08-17T00:37:33.972Z,17.55
2022-08-17T00:40:01.212Z,17.65
2022-08-17T00:42:31.121Z,18.90
2022-08-17T00:44:59.139Z,17.90
2022-08-17T00:47:26.496Z,18.60
2022-08-17T00:49:54.082Z,17.48
2022-08-17T00:52:32.408Z,18.08
2022-08-17T00:55:01.196Z,17.92
2022-08-17T00:57:35.124Z,17.98
2022-08-17T01:00:33.651Z,19.10
2022-08-17T01:03:11.915Z,18.13
2022-08-17T01:05:42.252Z,18.63
2022-08-17T01:08:15.252Z,18.80
2022-08-17T01:10:57.438Z,18.05
2022-08-17T01:13:41.160Z,17.17
2022-08-17T01:16:26.620Z,18.42
2022-08-17T01:18:59.347Z,17.88
2022-08-17T01:21:30.603Z,18.23
2022-08-17T01:24:00.035Z,17.02
2022-08-17T01:26:29.587Z,16.95
2022-08-17T01:28:56.916Z,18.45
2022-08-17T01:31:30.303Z,16.77
2022-08-17T01:34:02.184Z,19.17
2022-08-17T01:36:29.496Z,17.70
2022-08-17T01:38:56.718Z,18.17
2022-08-17T01:41:24.898Z,18.63
2022-08-17T01:44:01.345Z,18.48
2022-08-17T01:46:35.149Z,18.30
2022-08-17T01:49:08.652Z,18.63
2022-08-17T01:51:36.240Z,18.77
2022-08-17T01:54:13.531Z,18.55
2022-08-17T01:56:48.367Z,19.17
2022-08-17T01:59:18.393Z,18.15
2022-08-17T02:01:46.873Z,18.70
2022-08-17T02:04:16.056Z,19.20
2022-08-17T02:06:53.537Z,19.40
2022-08-17T02:09:25.666Z,19.08
2022-08-17T02:11:59.790Z,18.95
2022-08-17T02:14:46.948Z,19.45
2022-08-17T02:17:14.088Z,19.40
2022-08-17T02:19:41.351Z,19.17
2022-08-17T02:22:09.145Z,19.98
2022-08-17T02:25:00.159Z,18.83
2022-08-17T02:27:26.275Z,20.55
2022-08-17T02:29:53.535Z,20.13
2022-08-17T02:32:27.922Z,19.67
2022-08-17T02:34:57.932Z,22.23
2022-08-17T02:37:27.581Z,21.02
2022-08-17T02:39:57.151Z,21.98
2022-08-17T02:42:34.032Z,22.27
2022-08-17T02:45:04.278Z,21.40
2022-08-17T02:47:31.396Z,21.33
2022-08-17T02:49:58.589Z,21.48
2022-08-17T02:52:43.139Z,21.42
2022-08-17T02:55:29.917Z,20.67
2022-08-17T02:57:57.403Z,20.02
2022-08-17T03:00:36.366Z,20.33
2022-08-17T03:03:06.111Z,19.92
2022-08-17T03:05:36.205Z,19.73
2022-08-17T03:08:07.017Z,20.60
2022-08-17T03:10:39.056Z,19.88
2022-08-17T03:13:06.191Z,19.45
2022-08-17T03:15:35.072Z,19.20
2022-08-17T03:18:03.762Z,19.80
2022-08-17T03:20:33.057Z,19.02
2022-08-17T03:23:02.808Z,20.23
2022-08-17T03:25:35.415Z,19.50
2022-08-17T03:28:04.757Z,19.13
2022-08-17T03:30:32.952Z,20.42
2022-08-17T03:33:04.830Z,20.23
2022-08-17T03:35:36.352Z,20.40
2022-08-17T03:38:04.585Z,20.40
2022-08-17T03:40:55.559Z,20.52
2022-08-17T03:43:23.218Z,19.38
2022-08-17T03:46:10.837Z,19.67
2022-08-17T03:49:13.516Z,19.60
2022-08-17T03:51:59.595Z,20.35
2022-08-17T03:54:45.694Z,20.42
2022-08-17T03:57:13.877Z,20.02
2022-08-17T03:59:41.344Z,20.23
2022-08-17T04:02:13.480Z,19.60
2022-08-17T04:04:40.755Z,19.67
2022-08-17T04:07:08.433Z,19.50
2022-08-17T04:09:36.620Z,20.27
2022-08-17T04:12:05.329Z,20.55
2022-08-17T04:14:51.396Z,21.25
2022-08-17T04:17:27.946Z,20.20
2022-08-17T04:22:32.622Z,21.75
2022-08-17T04:25:09.960Z,20.42
2022-08-17T04:27:37.142Z,21.58
2022-08-17T04:30:07.264Z,20.63
2022-08-17T04:33:10.467Z,20.27
2022-08-17T04:35:41.332Z,19.65
2022-08-17T04:38:18.905Z,21.67
2022-08-17T04:41:05.085Z,19.75
2022-08-17T04:43:35.077Z,20.65
2022-08-17T04:46:08.805Z,19.83
2022-08-17T04:48:53.141Z,20.50
2022-08-17T04:54:04.293Z,20.08
2022-08-17T04:56:32.739Z,21.25
2022-08-17T04:59:05.219Z,21.90
2022-08-17T05:01:36.179Z,21.45
2022-08-17T05:04:32.841Z,20.23
2022-08-17T05:06:57.618Z,20.42
2022-08-17T05:09:24.670Z,20.10
2022-08-17T05:11:51.818Z,20.85
2022-08-17T05:14:18.981Z,21.73
2022-08-17T05:16:49.225Z,20.77
2022-08-17T05:19:16.335Z,20.83
2022-08-17T05:21:43.506Z,21.42
2022-08-17T05:24:36.074Z,22.33
2022-08-17T05:27:02.604Z,21.83
2022-08-17T05:29:35.466Z,23.63
2022-08-17T05:32:38.322Z,24.92
2022-08-17T05:35:00.005Z,25.17
2022-08-17T05:37:27.091Z,24.30
2022-08-17T05:39:54.516Z,23.90
2022-08-17T05:42:22.475Z,26.20
2022-08-17T05:44:49.668Z,28.58
2022-08-17T05:47:18.343Z,28.67
2022-08-17T05:49:45.532Z,25.38
2022-08-17T05:52:50.098Z,28.58
2022-08-17T05:55:39.967Z,29.70
2022-08-17T05:58:52.748Z,29.90
2022-08-17T06:01:42.954Z,32.90
2022-08-17T06:04:34.721Z,32.17
2022-08-17T06:07:30.349Z,33.65
2022-08-17T06:10:16.883Z,32.80
2022-08-17T06:13:17.837Z,32.67
2022-08-17T06:16:28.221Z,33.72
2022-08-17T06:19:03.183Z,31.00
2022-08-17T06:21:38.028Z,37.05
2022-08-17T06:24:20.473Z,34.83
2022-08-17T06:26:48.821Z,33.35
2022-08-17T06:29:41.147Z,31.13
2022-08-17T06:32:12.862Z,30.45
2022-08-17T06:34:45.031Z,33.92
2022-08-17T06:37:48.759Z,38.88
2022-08-17T06:40:38.784Z,39.47
2022-08-17T06:43:32.661Z,38.65
2022-08-17T06:46:12.056Z,39.03
2022-08-17T06:49:07.382Z,32.08
2022-08-17T06:51:43.770Z,33.45
2022-08-17T06:54:33.976Z,29.35
2022-08-17T06:57:19.642Z,28.50
2022-08-17T06:59:58.648Z,27.55
2022-08-17T07:03:02.278Z,30.55
2022-08-17T07:05:42.888Z,27.27
2022-08-17T07:08:35.195Z,25.33
2022-08-17T07:11:13.086Z,25.77
2022-08-17T07:14:17.532Z,25.38
2022-08-17T07:16:51.696Z,30.10
2022-08-17T07:22:25.546Z,25.30
2022-08-17T07:24:59.628Z,29.67
2022-08-17T07:30:19.945Z,23.38
2022-08-17T07:33:13.654Z,27.50
2022-08-17T07:35:44.952Z,26.20
2022-08-17T07:38:28.441Z,26.33
2022-08-17T07:41:02.318Z,28.73
2022-08-17T07:46:33.889Z,28.30
2022-08-17T07:49:00.875Z,28.45
2022-08-17T07:51:38.047Z,29.42
2022-08-17T07:54:23.280Z,26.52
2022-08-17T07:57:13.633Z,27.35
2022-08-17T08:00:03.448Z,25.45
2022-08-17T08:02:45.423Z,30.38
2022-08-17T08:05:48.811Z,28.13
2022-08-17T08:08:42.229Z,33.63
2022-08-17T08:11:15.467Z,31.30
2022-08-17T08:13:45.541Z,31.98
2022-08-17T08:16:29.578Z,29.02
2022-08-17T08:19:01.836Z,28.60
2022-08-17T08:21:59.999Z,27.40
2022-08-17T08:25:11.295Z,28.70
2022-08-17T08:28:16.722Z,31.15
2022-08-17T08:30:52.701Z,32.10
2022-08-17T08:33:40.206Z,34.63
2022-08-17T08:37:12.719Z,33.00
2022-08-17T08:39:53.706Z,32.60
2022-08-17T08:42:51.539Z,33.00
2022-08-17T08:45:32.855Z,30.45
2022-08-17T08:48:46.302Z,29.27
2022-08-17T08:51:50.939Z,29.15
2022-08-17T08:54:47.997Z,28.40
2022-08-17T08:57:34.573Z,28.83
2022-08-17T09:00:10.883Z,26.95
2022-08-17T09:03:06.166Z,25.80
2022-08-17T09:05:52.484Z,26.10
2022-08-17T09:09:09.256Z,28.77
2022-08-17T09:12:04.992Z,26.33
2022-08-17T09:19:03.007Z,25.48
2022-08-17T09:21:48.233Z,25.27
2022-08-17T09:24:32.783Z,24.92
2022-08-17T09:27:11.339Z,25.65
2022-08-17T09:29:47.884Z,26.13
2022-08-17T09:32:31.378Z,27.08
2022-08-17T09:35:11.956Z,26.73
2022-08-17T09:38:16.622Z,27.58
2022-08-17T09:43:46.869Z,26.42
2022-08-17T09:46:24.968Z,25.83
2022-08-17T09:49:16.025Z,26.25
2022-08-17T09:51:55.054Z,25.92
2022-08-17T09:54:44.849Z,27.17
2022-08-17T09:57:42.118Z,28.08
2022-08-17T10:00:28.028Z,26.13
2022-08-17T10:03:29.140Z,27.60
2022-08-17T10:06:37.838Z,26.75
2022-08-17T10:09:13.094Z,26.67
2022-08-17T10:12:17.083Z,27.75
2022-08-17T10:15:15.569Z,26.80
2022-08-17T10:18:10.680Z,27.33
2022-08-17T10:21:14.193Z,29.23
2022-08-17T10:24:03.553Z,31.58
2022-08-17T10:26:40.553Z,30.73
2022-08-17T10:29:44.165Z,29.30
2022-08-17T10:32:35.360Z,28.48
2022-08-17T10:35:28.635Z,27.10
2022-08-17T10:38:08.515Z,26.63
2022-08-17T10:40:45.445Z,25.63
2022-08-17T10:44:28.547Z,24.08
2022-08-17T10:46:57.671Z,25.27
2022-08-17T10:49:29.618Z,23.77
2022-08-17T10:52:01.597Z,22.80
2022-08-17T10:54:38.695Z,25.42
2022-08-17T10:57:31.696Z,23.10
2022-08-17T11:00:00.740Z,22.60
2022-08-17T11:02:54.484Z,23.55
2022-08-17T11:05:53.868Z,25.35
2022-08-17T11:09:13.734Z,26.70
2022-08-17T11:12:00.303Z,28.65
2022-08-17T11:14:55.812Z,30.65
2022-08-17T11:17:41.480Z,29.55
2022-08-17T11:20:41.283Z,32.97
2022-08-17T11:23:50.350Z,29.63
2022-08-17T11:26:28.048Z,31.65
2022-08-17T11:29:09.581Z,30.65
2022-08-17T11:31:46.567Z,31.70
2022-08-17T11:34:21.187Z,30.40
2022-08-17T11:37:07.443Z,30.92
2022-08-17T11:40:15.210Z,35.08
2022-08-17T11:42:59.648Z,32.55
2022-08-17T11:45:51.007Z,36.47
2022-08-17T11:49:18.937Z,35.40
2022-08-17T11:52:01.357Z,34.17
2022-08-17T11:54:33.225Z,35.05
2022-08-17T11:57:26.728Z,37.90
2022-08-17T12:00:46.652Z,37.15
2022-08-17T12:03:43.221Z,35.10
2022-08-17T12:06:34.363Z,37.97
2022-08-17T12:09:12.772Z,35.92
2022-08-17T12:12:12.158Z,38.22
2022-08-17T12:15:10.470Z,40.50
2022-08-17T12:17:42.373Z,36.38
2022-08-17T12:20:15.541Z,36.38
2022-08-17T12:23:01.008Z,36.90
2022-08-17T12:25:42.935Z,34.97
2022-08-17T12:28:27.779Z,35.90
2022-08-17T12:31:04.128Z,35.55
2022-08-17T12:33:31.803Z,38.17
2022-08-17T12:36:08.522Z,37.80
2022-08-17T12:38:38.269Z,35.15
2022-08-17T12:41:27.748Z,39.38
2022-08-17T12:44:31.515Z,39.25
2022-08-17T12:47:19.457Z,42.13
2022-08-17T12:49:55.052Z,39.33
2022-08-17T12:52:29.242Z,41.55
2022-08-17T12:55:11.038Z,43.15
2022-08-17T12:57:38.001Z,40.90
2022-08-17T13:00:40.859Z,40.05
2022-08-17T13:03:26.435Z,43.58
2022-08-17T13:06:06.120Z,48.65
2022-08-17T13:08:43.199Z,46.17
2022-08-17T13:11:22.562Z,43.50
2022-08-17T13:13:56.749Z,42.83
2022-08-17T13:16:31.631Z,45.03
2022-08-17T13:19:40.590Z,41.97
2022-08-17T13:22:12.797Z,41.45
2022-08-17T13:24:53.271Z,46.45
2022-08-17T13:27:23.677Z,38.53
2022-08-17T13:29:59.567Z,36.95
2022-08-17T13:32:45.659Z,36.78
2022-08-17T13:35:32.226Z,40.40
2022-08-17T13:38:10.712Z,38.30
2022-08-17T13:40:52.775Z,39.35
2022-08-17T13:43:48.401Z,42.88
2022-08-17T13:46:22.937Z,35.88
2022-08-17T13:49:09.648Z,40.55
2022-08-17T13:51:44.593Z,41.65
2022-08-17T13:54:33.451Z,39.63
2022-08-17T13:57:03.943Z,42.83
2022-08-17T14:00:12.180Z,37.80
2022-08-17T14:02:39.230Z,38.15
2022-08-17T14:05:06.790Z,36.47
2022-08-17T14:07:39.409Z,35.47
2022-08-17T14:10:18.068Z,36.40
2022-08-17T14:12:45.665Z,36.40
2022-08-17T14:15:20.503Z,36.88
2022-08-17T14:17:49.196Z,40.58
2022-08-17T14:20:21.247Z,36.83
2022-08-17T14:22:53.168Z,34.60
2022-08-17T14:25:26.355Z,34.67
2022-08-17T14:27:54.645Z,37.38
2022-08-17T14:30:25.969Z,33.97
2022-08-17T14:32:55.128Z,35.85
2022-08-17T14:35:23.861Z,33.80
2022-08-17T14:37:52.845Z,34.55
2022-08-17T14:40:22.632Z,32.53
2022-08-17T14:42:51.496Z,35.03
2022-08-17T14:45:29.607Z,29.85
2022-08-17T14:48:07.578Z,30.10
2022-08-17T14:50:41.057Z,28.50
2022-08-17T14:53:11.465Z,32.03
2022-08-17T14:55:42.303Z,30.58
2022-08-17T14:58:09.534Z,29.33
2022-08-17T15:00:39.409Z,29.42
2022-08-17T15:03:06.681Z,28.58
2022-08-17T15:05:37.993Z,31.00
2022-08-17T15:08:06.483Z,29.65
2022-08-17T15:10:35.683Z,31.35
2022-08-17T15:13:03.663Z,32.28
2022-08-17T15:15:31.268Z,31.88
2022-08-17T15:17:59.779Z,29.95
2022-08-17T15:20:29.908Z,29.27
2022-08-17T15:22:59.343Z,29.33
2022-08-17T15:25:30.374Z,28.50
2022-08-17T15:27:59.404Z,28.15
2022-08-17T15:30:28.231Z,29.05
2022-08-17T15:32:58.472Z,31.67
2022-08-17T15:35:30.375Z,30.17
2022-08-17T15:38:06.142Z,32.35
2022-08-17T15:40:38.620Z,31.52
2022-08-17T15:43:11.272Z,32.47
2022-08-17T15:45:40.409Z,32.83
2022-08-17T15:48:08.894Z,33.25
2022-08-17T15:50:36.143Z,33.17
2022-08-17T15:53:04.859Z,32.90
2022-08-17T15:55:33.439Z,33.47
2022-08-17T15:58:01.079Z,30.73
2022-08-17T16:00:29.516Z,32.40
2022-08-17T16:03:45.508Z,32.20
2022-08-17T16:05:47.803Z,34.75
2022-08-17T16:08:20.152Z,36.30
2022-08-17T16:10:50.359Z,34.22
2022-08-17T16:13:19.438Z,32.03
2022-08-17T16:15:57.068Z,35.58
2022-08-17T16:18:31.566Z,33.30
2022-08-17T16:21:25.735Z,35.20
2022-08-17T16:24:01.343Z,32.78
2022-08-17T16:26:32.025Z,31.50
2022-08-17T16:29:03.574Z,30.08
2022-08-17T16:31:31.204Z,28.92
2022-08-17T16:34:17.371Z,30.70
2022-08-17T16:36:55.044Z,28.83
2022-08-17T16:39:28.945Z,28.10
2022-08-17T16:41:57.464Z,26.17
2022-08-17T16:44:27.435Z,27.77
2022-08-17T16:46:54.748Z,26.88
2022-08-17T16:49:35.865Z,27.77
2022-08-17T16:52:10.069Z,26.33
2022-08-17T16:54:43.610Z,26.48
2022-08-17T16:59:42.707Z,27.98
2022-08-17T17:02:17.071Z,28.05
2022-08-17T17:05:09.272Z,27.83
2022-08-17T17:08:03.464Z,25.75
2022-08-17T17:10:45.734Z,28.63
2022-08-17T17:13:23.872Z,29.90
2022-08-17T17:16:21.753Z,31.73
2022-08-17T17:19:14.887Z,29.70
2022-08-17T17:22:21.709Z,28.98
2022-08-17T17:25:03.643Z,29.88
2022-08-17T17:27:53.210Z,32.53
2022-08-17T17:30:37.200Z,34.80
2022-08-17T17:33:13.295Z,34.08
2022-08-17T17:35:54.301Z,33.05
2022-08-17T17:38:32.456Z,33.35
2022-08-17T17:41:12.004Z,36.67
2022-08-17T17:43:41.207Z,35.03
2022-08-17T17:46:28.656Z,36.30
2022-08-17T17:48:58.077Z,34.92
2022-08-17T17:52:15.584Z,33.03
2022-08-17T17:55:18.712Z,34.58
2022-08-17T17:57:57.595Z,33.47
2022-08-17T18:00:44.538Z,33.40
2022-08-17T18:03:26.512Z,34.40
2022-08-17T18:06:18.628Z,32.92
2022-08-17T18:10:02.985Z,33.97
2022-08-17T18:12:57.012Z,35.05
2022-08-17T18:15:37.043Z,32.53
2022-08-17T18:18:17.163Z,34.85
2022-08-17T18:20:54.052Z,37.42
2022-08-17T18:23:27.919Z,33.92
2022-08-17T18:25:58.560Z,34.45
2022-08-17T18:28:43.948Z,36.10
2022-08-17T18:31:22.058Z,37.13
2022-08-17T18:33:54.680Z,34.95
2022-08-17T18:36:36.451Z,38.08
2022-08-17T18:39:19.041Z,37.92
2022-08-17T18:41:50.836Z,37.33
2022-08-17T18:44:30.252Z,38.63
2022-08-17T18:47:24.662Z,38.50
2022-08-17T18:50:15.161Z,39.20
2022-08-17T18:52:42.439Z,37.53
2022-08-17T18:55:24.881Z,38.38
2022-08-17T18:58:21.069Z,36.30
2022-08-17T19:00:51.888Z,38.72
2022-08-17T19:03:26.469Z,35.42
2022-08-17T19:06:15.128Z,37.60
2022-08-17T19:08:42.321Z,38.00
2022-08-17T19:11:32.104Z,37.20
2022-08-17T19:14:03.808Z,34.92
2022-08-17T19:17:19.239Z,39.20
2022-08-17T19:22:51.847Z,38.10
2022-08-17T19:25:29.304Z,41.35
2022-08-17T19:28:43.798Z,38.05
2022-08-17T19:31:26.943Z,39.80
2022-08-17T19:33:56.277Z,41.67
2022-08-17T19:36:50.735Z,40.17
2022-08-17T19:39:55.936Z,38.30
2022-08-17T19:42:55.860Z,42.58
2022-08-17T19:46:09.125Z,40.88
2022-08-17T19:48:51.240Z,44.33
2022-08-17T19:51:40.863Z,39.45
2022-08-17T19:54:35.122Z,39.97
2022-08-17T19:57:20.706Z,41.78
2022-08-17T20:00:17.217Z,46.40
2022-08-17T20:02:57.600Z,46.50
2022-08-17T20:06:08.534Z,45.35
2022-08-17T20:09:16.661Z,46.55
2022-08-17T20:11:56.211Z,42.78
2022-08-17T20:14:55.273Z,43.78
2022-08-17T20:17:34.866Z,44.00
2022-08-17T20:20:27.067Z,45.47
2022-08-17T20:23:39.923Z,49.28
2022-08-17T20:26:22.756Z,49.83
2022-08-17T20:29:16.667Z,46.88
2022-08-17T20:31:55.584Z,48.53
2022-08-17T20:34:25.704Z,45.42
2022-08-17T20:37:13.469Z,50.05
2022-08-17T20:40:09.300Z,50.20
2022-08-17T20:42:39.304Z,47.25
2022-08-17T20:45:21.285Z,49.60
2022-08-17T20:48:18.569Z,52.15
2022-08-17T20:50:58.984Z,49.45
2022-08-17T20:53:54.705Z,51.33
2022-08-17T20:56:43.643Z,48.47
2022-08-17T20:59:25.905Z,52.55
2022-08-17T21:02:06.655Z,51.78
2022-08-17T21:04:52.923Z,51.35
2022-08-17T21:07:51.171Z,53.72
2022-08-17T21:10:29.559Z,51.20
2022-08-17T21:13:23.942Z,48.65
2022-08-17T21:16:23.968Z,51.90
2022-08-17T21:19:22.148Z,52.67
2022-08-17T21:22:20.856Z,54.28
2022-08-17T21:25:14.160Z,52.67
2022-08-17T21:28:13.296Z,52.10
2022-08-17T21:30:44.577Z,52.03
2022-08-17T21:33:39.027Z,53.95
2022-08-17T21:36:11.909Z,50.15
2022-08-17T21:38:47.720Z,52.53
2022-08-17T21:41:46.328Z,50.88
2022-08-17T21:44:33.201Z,49.92
2022-08-17T21:47:23.625Z,51.40
2022-08-17T21:49:53.843Z,51.00
2022-08-17T21:52:26.695Z,49.72
2022-08-17T21:54:58.379Z,49.15
2022-08-17T21:57:28.885Z,49.65
2022-08-17T22:00:02.472Z,48.08
2022-08-17T22:02:37.209Z,50.30
2022-08-17T22:05:36.995Z,50.13
2022-08-17T22:08:19.599Z,51.35
2022-08-17T22:10:50.556Z,49.95
2022-08-17T22:13:17.775Z,51.58
2022-08-17T22:16:28.154Z,49.60
2022-08-17T22:18:59.068Z,49.60
2022-08-17T22:21:27.297Z,50.60
2022-08-17T22:24:21.544Z,45.78
2022-08-17T22:27:11.664Z,47.35
2022-08-17T22:30:00.192Z,50.83
2022-08-17T22:32:42.809Z,50.05
2022-08-17T22:35:33.305Z,50.15
2022-08-17T22:38:18.899Z,49.22
2022-08-17T22:40:51.094Z,49.13
2022-08-17T22:43:26.381Z,46.75
2022-08-17T22:45:59.286Z,46.13
2022-08-17T22:48:31.147Z,48.38
2022-08-17T22:51:13.660Z,47.03
2022-08-17T22:54:15.006Z,47.28
2022-08-17T22:57:32.742Z,50.30
2022-08-17T23:00:00.982Z,49.05
2022-08-17T23:02:35.778Z,54.67
2022-08-17T23:05:17.263Z,50.33
2022-08-17T23:07:46.851Z,49.83
2022-08-17T23:10:15.301Z,54.40
2022-08-17T23:12:42.629Z,54.33
2022-08-17T23:15:18.936Z,53.90
2022-08-17T23:17:46.512Z,52.90
2022-08-17T23:20:16.396Z,51.58
2022-08-17T23:22:52.355Z,55.42
2022-08-17T23:25:33.512Z,50.97
2022-08-17T23:28:03.730Z,51.17
2022-08-17T23:30:39.829Z,52.20
2022-08-17T23:33:18.980Z,49.70
2022-08-17T23:35:46.096Z,54.67
2022-08-17T23:38:13.885Z,54.92
2022-08-17T23:40:41.146Z,52.95
2022-08-17T23:43:24.180Z,50.63
2022-08-17T23:45:56.137Z,55.13
2022-08-17T23:48:35.044Z,52.67
2022-08-17T23:51:09.568Z,50.55
2022-08-17T23:53:46.135Z,51.30
2022-08-17T23:56:14.404Z,52.42
2022-08-17T23:58:44.713Z,51.05
